x

Western Caribbean - 195 Nm Wsw Of Negril Jamiaca (42057) Wave Buoy

7:50 - Mon 8th Feb 2016 All times are UTC.

  • Sig Wave height 6.6ft
  • Swell Direction
  • Peak Period 8s
  • Average Period 6s
  • Wind
    18mph, 20mph gusts
  • Sea Temp 81°f
  • Aire Temp 79°f
  • Sea Pressure 1015mb

More Historic Weather Station data

Upgrade to MSW Pro to gain access to the past 30 days of data for over 8000 Wavebouys and Weather Stations around the globe.

Join Pro

Comparision Forecast

View Surf forecast
   
lun 02/08 7:50 6.5ft 8s 6s 18 20 mph 1015mb 81f 79f
6:50 6.5ft 8s 6s 18 20 mph 1015.4mb 81f 79f
5:50 6.5ft 8s 6s 18 22 mph 1016.1mb 82f 79f
4:50 7ft 8s 6s 18 20 mph 1016.4mb 82f 79f
3:50 6ft 8s 6s 18 22 mph 1016.6mb 82f 78f
2:50 5ft 5s 5s 18 22 mph 1016.5mb 82f 78f
1:50 4.5ft 5s 5s 18 22 mph 1016mb 82f 78f
12:50 3.5ft 7s 5s 20 25 mph 1015.1mb 82f 78f
dom 02/07 11:50 3.5ft 7s 5s 16 20 mph 1014.6mb 82f 79f
10:50 3.5ft 7s 5s 18 22 mph 1014.1mb 82f 78f
9:50 3ft 6s 5s 13
mph
1014mb 82f 80f
8:50 3.5ft 7s 6s 11 16 mph 1013.9mb 82f 80f
7:50 3.5ft 7s 6s 11 13 mph 1014.4mb 82f 80f
6:50 3.5ft 7s 6s 9 11 mph 1015.2mb 82f 80f
5:50 3.5ft 7s 6s 7 9 mph 1016mb 82f 80f
4:50 3.5ft 11s 6s 7 9 mph 1016.6mb 82f 80f
3:50 3.5ft 10s 6s 7 9 mph 1017.1mb 82f 80f
2:50 3.5ft 6s 6s 7
mph
1016.8mb 82f 80f
1:50 3.5ft 10s 6s 7
mph
1016.3mb 81f 80f
12:50 3.5ft 6s 6s 4 7 mph 1015.8mb 81f 80f
11:50 3.5ft 6s 6s 4 7 mph 1015.3mb 81f 79f
10:50 3.5ft 7s 6s 4 7 mph 1014.8mb 81f 79f
9:50 3.5ft 11s 6s 7
mph
1014.6mb 81f 79f
8:50 3.5ft 7s 6s 7 9 mph 1014.6mb 81f 80f
7:50 3.5ft 11s 6s 7 9 mph 1014.8mb 81f 80f
6:50 4.5ft 6s 6s 7 11 mph 1015.1mb 81f 80f
5:50 4ft 11s 6s 9 11 mph 1015.6mb 81f 80f
4:50 3.5ft 8s 6s 9 11 mph 1016.1mb 81f 81f
3:50 4.5ft 11s 6s 11 13 mph 1016.2mb 81f 81f
2:50 4.5ft 6s 6s 11 13 mph 1016.1mb 81f 81f
1:50 4.5ft 7s 6s 11 13 mph 1015.8mb 81f 81f
12:50 4.5ft 8s 6s 11
mph
1015.5mb 81f 81f
sáb 02/06 11:50 4.5ft 8s 6s 9 11 mph 1015mb 81f 81f
10:50 4.5ft 7s 6s 9
mph
1014.8mb 82f 81f
9:50 4.5ft 8s 6s 11
mph
1014.4mb 82f 81f
8:50 5ft 7s 6s 11 13 mph 1014.1mb 82f 81f
7:50 4.5ft 8s 5s 11 13 mph 1014.2mb 82f 81f
6:50 5ft 8s 6s 16 18 mph 1014.9mb 82f 82f
5:50 4.5ft 8s 6s 13 18 mph 1015.6mb 82f 82f
4:50 4.5ft 8s 6s 13 16 mph 1016.2mb 82f 81f
3:50 4.5ft 8s 6s 11 13 mph 1016.7mb 82f 81f
2:50 5ft 9s 6s 13 16 mph 1016.4mb 81f 81f
1:50 4.5ft 11s 6s 13 16 mph 1015.5mb 81f 80f
12:50 3.5ft 11s 5s 9 11 mph 1014.9mb 81f 80f
11:50 3.5ft 5s 5s 11 13 mph 1014.3mb 81f 80f
10:50 3.5ft 11s 5s 13 16 mph 1013.9mb 81f 80f
9:50 4ft 11s 5s 13 18 mph 1013.7mb 81f 80f
8:50 4.5ft 11s 5s 11 18 mph 1013.7mb 81f 80f
7:50 4.5ft 5s 5s 13 16 mph 1013.9mb 81f 80f
6:50 4.5ft 8s 5s 16 20 mph 1014.4mb 81f 80f
5:50 4ft 5s 5s 16 20 mph 1015mb 81f 80f
4:50 4ft 7s 5s 16 18 mph 1015.6mb 81f 81f
3:50 4ft 7s 5s 13 18 mph 1015.9mb 81f 81f
2:50 3.5ft 8s 5s 16 18 mph 1015.6mb 81f 81f
1:50 3.5ft 8s 5s 16 18 mph 1015.7mb 82f 81f
12:50 3.5ft 8s 5s 16 18 mph 1015.2mb 82f 81f
vie 02/05 11:50 3.5ft 5s 5s 16 18 mph 1014.7mb 82f 81f
10:50 3.5ft 5s 4s 16 18 mph 1014.4mb 82f 81f
9:50 3.5ft 5s 5s 16 18 mph 1014mb 82f 81f
8:50 4ft 5s 5s 13 18 mph 1014mb 82f 81f
7:50 3.5ft 8s 5s 16 18 mph 1014.2mb 82f 81f
6:50 3.5ft 8s 5s 16 18 mph 1015mb 82f 81f
5:50 4ft 8s 5s 16 18 mph 1015.9mb 82f 81f
4:50 3.5ft 4s 5s 16 20 mph 1016.8mb 82f 81f
3:50 3.5ft 8s 5s 16 20 mph 1017.3mb 82f 81f
2:50 3.5ft 8s 5s 18 20 mph 1017.3mb 82f 81f
1:50 3.5ft 8s 5s 16 18 mph 1016.9mb 81f 80f
12:50 3.5ft 8s 5s 13 16 mph 1016.1mb 81f 80f
11:50 3.5ft 8s 5s 13 16 mph 1015.7mb 81f 80f
10:50 3.5ft 8s 5s 13 16 mph 1015.1mb 81f 80f
9:50 3.5ft 7s 5s 13 16 mph 1014.8mb 82f 80f
8:50 3.5ft 8s 5s 13 16 mph 1014.9mb 82f 80f
7:50 3.5ft 8s 5s 11 16 mph 1015.2mb 82f 80f
6:50 3ft 6s 5s 11 13 mph 1015.5mb 82f 80f
5:50 3.5ft 6s 5s 11 13 mph 1015.8mb 82f 80f
4:50 3.5ft 7s 5s 11 13 mph 1016mb 82f 80f
3:50 3.5ft 7s 5s 11 13 mph 1016mb 82f 81f
2:50 4ft 7s 5s 13 16 mph 1015.8mb 82f 81f
1:50 4ft 6s 5s 13 16 mph 1015.4mb 82f 81f
12:50 4ft 8s 5s 11 13 mph 1014.7mb 82f 81f
jue 02/04 11:50 4.5ft 6s 5s 11 13 mph 1014.1mb 82f 81f
10:50 4.5ft 7s 5s 11 13 mph 1013.7mb 82f 81f
9:50 4.5ft 7s 5s 11 13 mph 1013.5mb 82f 81f
8:50 4.5ft 7s 5s 13 16 mph 1013.3mb 82f 81f
7:50 4.5ft 7s 5s 13 16 mph 1013.4mb 82f 81f
6:50 4.5ft 8s 5s 11 13 mph 1014.1mb 82f 81f
5:50 4ft 8s 5s 13 18 mph 1014.9mb 82f 81f
4:50 4.5ft 6s 5s 16 18 mph 1015.4mb 81f 81f
3:50 4ft 6s 5s 16 18 mph 1015.7mb 81f 81f
2:50 4ft 6s 5s 16 18 mph 1015.9mb 81f 81f
1:50 3.5ft 7s 5s 13 16 mph 1015.3mb 81f 81f
12:50 3.5ft 7s 5s 16 18 mph 1014.8mb 81f 81f
11:50 4ft 8s 5s 13 16 mph 1014mb 81f 80f
10:50 3.5ft 7s 5s 13 16 mph 1013.6mb 81f 80f
9:50 4ft 6s 5s 13 16 mph 1013.1mb 81f 80f
8:50 4ft 6s 5s 13 16 mph 1013mb 81f 80f